Time,TemperatureF,DewpointF,PressureIn,WindDirection,WindDirectionDegrees,WindSpeedMPH,WindSpeedGustMPH,Humidity,HourlyPrecipIn,Conditions,Clouds,dailyrainin,SoftwareType,DateUTC
2013-03-04 00:00:00,39.0,31.1,29.98,NNW,338,9.0,18.0,73,0.00,,---,0.00,VWS V14.00,2013-03-04 05:00:00,
2013-03-04 00:05:00,38.9,32.0,29.98,NNW,339,10.0,14.0,76,0.00,,---,0.00,VWS V14.00,2013-03-04 05:05:00,
2013-03-04 00:10:00,38.8,31.2,29.98,NNW,335,14.0,14.0,74,0.00,,---,0.00,VWS V14.00,2013-03-04 05:10:00,
2013-03-04 00:15:00,38.8,31.6,29.98,NNW,339,13.0,14.0,75,0.00,,---,0.00,VWS V14.00,2013-03-04 05:15:00,
2013-03-04 00:20:00,38.8,31.6,29.98,NNW,334,14.0,18.0,75,0.00,,---,0.00,VWS V14.00,2013-03-04 05:20:00,
2013-03-04 00:25:00,38.9,31.7,29.99,NNW,338,15.0,19.0,75,0.00,,---,0.00,VWS V14.00,2013-03-04 05:25:00,
2013-03-04 00:30:00,38.8,31.2,29.99,NNW,333,13.0,13.0,74,0.00,,---,0.00,VWS V14.00,2013-03-04 05:30:00,
2013-03-04 00:35:00,38.8,31.6,29.99,NW,324,14.0,16.0,75,0.00,,---,0.00,VWS V14.00,2013-03-04 05:35:00,
2013-03-04 00:40:00,38.7,31.5,29.99,NNW,334,16.0,18.0,75,0.00,,---,0.00,VWS V14.00,2013-03-04 05:40:00,
2013-03-04 00:45:00,38.6,31.4,29.99,NNW,333,16.0,20.0,75,0.00,,---,0.00,VWS V14.00,2013-03-04 05:45:00,
2013-03-04 00:50:00,38.4,30.5,29.99,NNW,328,16.0,20.0,73,0.00,,---,0.00,VWS V14.00,2013-03-04 05:50:00,
2013-03-04 00:55:00,38.2,30.7,30.00,NNW,336,11.0,20.0,74,0.00,,---,0.00,VWS V14.00,2013-03-04 05:55:00,
2013-03-04 01:00:00,38.1,30.2,29.99,NNW,339,15.0,17.0,73,0.00,,---,0.00,VWS V14.00,2013-03-04 06:00:00,
2013-03-04 01:05:00,38.0,30.1,30.00,NNW,336,12.0,19.0,73,0.00,,---,0.00,VWS V14.00,2013-03-04 06:05:00,
2013-03-04 01:10:00,37.9,30.7,30.00,NW,326,13.0,19.0,75,0.00,,---,0.00,VWS V14.00,2013-03-04 06:10:00,
2013-03-04 01:15:00,37.8,30.3,30.00,NNW,337,14.0,19.0,74,0.00,,---,0.00,VWS V14.00,2013-03-04 06:15:00,
2013-03-04 01:20:00,37.7,30.2,30.00,NNW,336,12.0,19.0,74,0.00,,---,0.00,VWS V14.00,2013-03-04 06:20:00,
2013-03-04 01:25:00,37.7,30.8,30.00,NNW,327,12.0,19.0,76,0.00,,---,0.00,VWS V14.00,2013-03-04 06:25:00,
2013-03-04 01:30:00,37.6,30.4,29.99,NNW,339,12.0,12.0,75,0.00,,---,0.00,VWS V14.00,2013-03-04 06:30:00,
2013-03-04 01:35:00,37.4,29.5,29.99,NNW,339,12.0,16.0,73,0.00,,---,0.00,VWS V14.00,2013-03-04 06:35:00,
2013-03-04 01:40:00,37.2,29.0,29.99,NNW,336,10.0,16.0,72,0.00,,---,0.00,VWS V14.00,2013-03-04 06:40:00,
2013-03-04 01:45:00,37.1,29.6,29.99,NNW,328,13.0,16.0,74,0.00,,---,0.00,VWS V14.00,2013-03-04 06:45:00,
2013-03-04 01:50:00,36.9,29.7,29.99,NNW,333,10.0,16.0,75,0.00,,---,0.00,VWS V14.00,2013-03-04 06:50:00,
2013-03-04 01:55:00,36.8,29.6,29.99,NNW,329,13.0,16.0,75,0.00,,---,0.00,VWS V14.00,2013-03-04 06:55:00,
2013-03-04 02:00:00,36.7,29.2,29.99,NW,323,12.0,13.0,74,0.00,,---,0.00,VWS V14.00,2013-03-04 07:00:00,
2013-03-04 02:05:00,36.6,28.8,29.99,NNW,333,13.0,17.0,73,0.00,,---,0.00,VWS V14.00,2013-03-04 07:05:00,
2013-03-04 02:10:00,36.5,29.0,29.99,NNW,337,15.0,17.0,74,0.00,,---,0.00,VWS V14.00,2013-03-04 07:10:00,
2013-03-04 02:15:00,36.4,28.6,29.99,NNW,328,15.0,17.0,73,0.00,,---,0.00,VWS V14.00,2013-03-04 07:15:00,
2013-03-04 02:20:00,36.3,28.8,29.99,NNW,330,13.0,18.0,74,0.00,,---,0.00,VWS V14.00,2013-03-04 07:20:00,
2013-03-04 02:25:00,36.2,28.4,29.99,NNW,337,15.0,18.0,73,0.00,,---,0.00,VWS V14.00,2013-03-04 07:25:00,
2013-03-04 02:30:00,36.0,27.9,29.99,NNW,337,13.0,14.0,72,0.00,,---,0.00,VWS V14.00,2013-03-04 07:30:00,
2013-03-04 02:35:00,35.9,28.8,29.99,NNW,333,15.0,18.0,75,0.00,,---,0.00,VWS V14.00,2013-03-04 07:35:00,
2013-03-04 02:40:00,35.8,29.0,29.99,NNW,330,14.0,18.0,76,0.00,,---,0.00,VWS V14.00,2013-03-04 07:40:00,
2013-03-04 02:45:00,35.7,28.9,29.99,NNW,338,16.0,18.0,76,0.00,,---,0.00,VWS V14.00,2013-03-04 07:45:00,
2013-03-04 02:50:00,35.7,28.9,29.99,NNW,331,17.0,20.0,76,0.00,,---,0.00,VWS V14.00,2013-03-04 07:50:00,
2013-03-04 02:55:00,35.4,28.6,30.00,NNW,332,15.0,22.0,76,0.00,,---,0.00,VWS V14.00,2013-03-04 07:55:00,
2013-03-04 03:00:00,35.3,28.5,29.99,NNW,329,15.0,15.0,76,0.00,,---,0.00,VWS V14.00,2013-03-04 08:00:00,
2013-03-04 03:05:00,35.2,28.1,30.00,NNW,329,15.0,21.0,75,0.00,,---,0.00,VWS V14.00,2013-03-04 08:05:00,
2013-03-04 03:10:00,35.1,28.3,30.00,NNW,332,14.0,21.0,76,0.00,,---,0.00,VWS V14.00,2013-03-04 08:10:00,
2013-03-04 03:15:00,34.9,27.8,30.00,NNW,333,15.0,21.0,75,0.00,,---,0.00,VWS V14.00,2013-03-04 08:15:00,
2013-03-04 03:20:00,34.9,27.5,30.00,NNW,336,15.0,21.0,74,0.00,,---,0.00,VWS V14.00,2013-03-04 08:20:00,
2013-03-04 03:25:00,34.8,27.4,30.00,NNW,330,12.0,21.0,74,0.00,,---,0.00,VWS V14.00,2013-03-04 08:25:00,
2013-03-04 03:30:00,34.6,26.9,30.00,NNW,328,14.0,14.0,73,0.00,,---,0.00,VWS V14.00,2013-03-04 08:30:00,
2013-03-04 03:35:00,34.4,26.3,30.00,NW,326,12.0,17.0,72,0.00,,---,0.00,VWS V14.00,2013-03-04 08:35:00,
2013-03-04 03:40:00,34.3,26.9,30.01,NW,320,12.0,17.0,74,0.00,,---,0.00,VWS V14.00,2013-03-04 08:40:00,
2013-03-04 03:45:00,34.1,26.4,30.01,NW,326,11.0,17.0,73,0.00,,---,0.00,VWS V14.00,2013-03-04 08:45:00,
2013-03-04 03:50:00,34.0,25.9,30.01,NW,325,9.0,17.0,72,0.00,,---,0.00,VWS V14.00,2013-03-04 08:50:00,
2013-03-04 03:55:00,33.9,25.8,30.01,NW,323,12.0,17.0,72,0.00,,---,0.00,VWS V14.00,2013-03-04 08:55:00,
2013-03-04 04:00:00,33.7,25.6,30.01,NW,324,13.0,13.0,72,0.00,,---,0.00,VWS V14.00,2013-03-04 09:00:00,
2013-03-04 04:05:00,33.6,25.9,30.02,NW,319,8.0,14.0,73,0.00,,---,0.00,VWS V14.00,2013-03-04 09:05:00,
2013-03-04 04:10:00,33.5,25.8,30.01,NNW,330,11.0,14.0,73,0.00,,---,0.00,VWS V14.00,2013-03-04 09:10:00,
2013-03-04 04:15:00,33.3,25.6,30.02,NW,322,10.0,14.0,73,0.00,,---,0.00,VWS V14.00,2013-03-04 09:15:00,
2013-03-04 04:20:00,33.1,25.4,30.02,NW,321,12.0,14.0,73,0.00,,---,0.00,VWS V14.00,2013-03-04 09:20:00,
2013-03-04 04:25:00,33.1,26.0,30.02,NNW,327,11.0,14.0,75,0.00,,---,0.00,VWS V14.00,2013-03-04 09:25:00,
2013-03-04 04:30:00,33.1,26.0,30.02,NNW,334,12.0,15.0,75,0.00,,---,0.00,VWS V14.00,2013-03-04 09:30:00,
2013-03-04 04:35:00,33.1,26.4,30.02,NNW,329,12.0,15.0,76,0.00,,---,0.00,VWS V14.00,2013-03-04 09:35:00,
2013-03-04 04:40:00,33.0,25.6,30.02,NNW,331,11.0,16.0,74,0.00,,---,0.00,VWS V14.00,2013-03-04 09:40:00,
2013-03-04 04:45:00,33.0,25.6,30.02,NNW,333,10.0,16.0,74,0.00,,---,0.00,VWS V14.00,2013-03-04 09:45:00,
2013-03-04 04:50:00,33.0,25.6,30.02,NNW,334,12.0,16.0,74,0.00,,---,0.00,VWS V14.00,2013-03-04 09:50:00,
2013-03-04 04:55:00,33.0,26.0,30.03,NNW,330,10.0,16.0,75,0.00,,---,0.00,VWS V14.00,2013-03-04 09:55:00,
2013-03-04 05:00:00,33.0,26.0,30.03,NNW,332,13.0,13.0,75,0.00,,---,0.00,VWS V14.00,2013-03-04 10:00:00,
2013-03-04 05:05:00,33.0,26.3,30.03,NNW,336,13.0,16.0,76,0.00,,---,0.00,VWS V14.00,2013-03-04 10:05:00,
2013-03-04 05:10:00,33.0,25.6,30.03,NNW,340,12.0,17.0,74,0.00,,---,0.00,VWS V14.00,2013-03-04 10:10:00,
2013-03-04 05:15:00,32.9,25.9,30.03,NNW,335,14.0,19.0,75,0.00,,---,0.00,VWS V14.00,2013-03-04 10:15:00,
2013-03-04 05:20:00,32.9,26.2,30.03,NNW,330,12.0,19.0,76,0.00,,---,0.00,VWS V14.00,2013-03-04 10:20:00,
2013-03-04 05:25:00,32.9,26.2,30.03,NNW,332,14.0,19.0,76,0.00,,---,0.00,VWS V14.00,2013-03-04 10:25:00,
2013-03-04 05:30:00,32.7,25.7,30.03,NNW,341,18.0,19.0,75,0.00,,---,0.00,VWS V14.00,2013-03-04 10:30:00,
2013-03-04 05:35:00,32.7,25.7,30.04,NNW,336,17.0,20.0,75,0.00,,---,0.00,VWS V14.00,2013-03-04 10:35:00,
2013-03-04 05:40:00,32.6,25.6,30.04,NNW,331,14.0,20.0,75,0.00,,---,0.00,VWS V14.00,2013-03-04 10:40:00,
2013-03-04 05:45:00,32.6,25.9,30.04,NNW,327,12.0,20.0,76,0.00,,---,0.00,VWS V14.00,2013-03-04 10:45:00,
2013-03-04 05:50:00,32.5,25.5,30.04,NW,326,14.0,20.0,75,0.00,,---,0.00,VWS V14.00,2013-03-04 10:50:00,
2013-03-04 05:55:00,32.5,25.8,30.04,NNW,331,13.0,20.0,76,0.00,,---,0.00,VWS V14.00,2013-03-04 10:55:00,
2013-03-04 06:00:00,32.3,25.3,30.05,NNW,329,13.0,14.0,75,0.00,,---,0.00,VWS V14.00,2013-03-04 11:00:00,
2013-03-04 06:05:00,32.2,24.9,30.05,NW,326,13.0,18.0,74,0.00,,---,0.00,VWS V14.00,2013-03-04 11:05:00,
2013-03-04 06:10:00,32.1,24.8,30.05,NNW,338,13.0,18.0,74,0.00,,---,0.00,VWS V14.00,2013-03-04 11:10:00,
2013-03-04 06:15:00,32.1,25.1,30.06,NNW,327,12.0,20.0,75,0.00,,---,0.00,VWS V14.00,2013-03-04 11:15:00,
2013-03-04 06:20:00,32.0,25.0,30.06,NW,323,14.0,20.0,75,0.00,,---,0.00,VWS V14.00,2013-03-04 11:20:00,
2013-03-04 06:25:00,31.9,24.9,30.06,NW,323,14.0,20.0,75,0.00,,---,0.00,VWS V14.00,2013-03-04 11:25:00,
2013-03-04 06:30:00,31.9,24.9,30.06,NW,323,15.0,20.0,75,0.00,,---,0.00,VWS V14.00,2013-03-04 11:30:00,
2013-03-04 06:35:00,31.8,24.5,30.06,NW,321,15.0,19.0,74,0.00,,---,0.00,VWS V14.00,2013-03-04 11:35:00,
2013-03-04 06:40:00,31.8,24.8,30.07,NW,325,11.0,19.0,75,0.00,,---,0.00,VWS V14.00,2013-03-04 11:40:00,
2013-03-04 06:45:00,31.8,24.8,30.07,NW,324,13.0,19.0,75,0.00,,---,0.00,VWS V14.00,2013-03-04 11:45:00,
2013-03-04 06:50:00,31.7,24.7,30.07,NNW,330,12.0,19.0,75,0.00,,---,0.00,VWS V14.00,2013-03-04 11:50:00,
2013-03-04 06:55:00,31.8,25.4,30.07,NW,316,16.0,19.0,77,0.00,,---,0.00,VWS V14.00,2013-03-04 11:55:00,
2013-03-04 07:00:00,31.7,24.7,30.08,NW,324,12.0,19.0,75,0.00,,---,0.00,VWS V14.00,2013-03-04 12:00:00,
2013-03-04 07:05:00,31.7,24.7,30.08,NNW,331,15.0,17.0,75,0.00,,---,0.00,VWS V14.00,2013-03-04 12:05:00,
2013-03-04 07:10:00,31.6,24.3,30.08,NW,326,11.0,17.0,74,0.00,,---,0.00,VWS V14.00,2013-03-04 12:10:00,
2013-03-04 07:15:00,31.6,24.6,30.08,NW,322,14.0,17.0,75,0.00,,---,0.00,VWS V14.00,2013-03-04 12:15:00,
2013-03-04 07:20:00,31.6,24.3,30.09,NW,324,15.0,17.0,74,0.00,,---,0.00,VWS V14.00,2013-03-04 12:20:00,
2013-03-04 07:25:00,31.6,24.3,30.09,NNW,330,13.0,17.0,74,0.00,,---,0.00,VWS V14.00,2013-03-04 12:25:00,
2013-03-04 07:30:00,31.6,24.6,30.09,NNW,329,16.0,16.0,75,0.00,,---,0.00,VWS V14.00,2013-03-04 12:30:00,
2013-03-04 07:35:00,31.7,24.7,30.09,NW,321,14.0,19.0,75,0.00,,---,0.00,VWS V14.00,2013-03-04 12:35:00,
2013-03-04 07:40:00,31.8,24.8,30.10,NNW,327,16.0,19.0,75,0.00,,---,0.00,VWS V14.00,2013-03-04 12:40:00,
2013-03-04 07:45:00,31.8,24.8,30.10,NNW,327,13.0,21.0,75,0.00,,---,0.00,VWS V14.00,2013-03-04 12:45:00,
2013-03-04 07:50:00,31.9,24.6,30.10,NW,323,13.0,21.0,74,0.00,,---,0.00,VWS V14.00,2013-03-04 12:50:00,
2013-03-04 07:55:00,31.9,24.2,30.10,NW,322,14.0,21.0,73,0.00,,---,0.00,VWS V14.00,2013-03-04 12:55:00,
2013-03-04 08:00:00,32.1,24.8,30.10,NW,315,17.0,17.0,74,0.00,,---,0.00,VWS V14.00,2013-03-04 13:00:00,
2013-03-04 08:05:00,32.2,25.5,30.10,NW,321,12.0,18.0,76,0.00,,---,0.00,VWS V14.00,2013-03-04 13:05:00,
2013-03-04 08:10:00,32.3,25.0,30.10,NNW,343,12.0,19.0,74,0.00,,---,0.00,VWS V14.00,2013-03-04 13:10:00,
2013-03-04 08:15:00,32.4,25.4,30.11,NW,324,16.0,19.0,75,0.00,,---,0.00,VWS V14.00,2013-03-04 13:15:00,
2013-03-04 08:20:00,32.5,25.1,30.11,NNW,334,16.0,20.0,74,0.00,,---,0.00,VWS V14.00,2013-03-04 13:20:00,
2013-03-04 08:25:00,32.6,24.6,30.11,NNW,335,12.0,20.0,72,0.00,,---,0.00,VWS V14.00,2013-03-04 13:25:00,
2013-03-04 08:30:00,32.7,25.0,30.11,NNW,332,13.0,20.0,73,0.00,,---,0.00,VWS V14.00,2013-03-04 13:30:00,
2013-03-04 08:35:00,32.9,25.5,30.11,NNW,339,15.0,19.0,74,0.00,,---,0.00,VWS V14.00,2013-03-04 13:35:00,
2013-03-04 08:40:00,33.1,25.7,30.11,NNW,327,16.0,21.0,74,0.00,,---,0.00,VWS V14.00,2013-03-04 13:40:00,
2013-03-04 08:45:00,33.2,26.1,30.11,NNW,344,13.0,21.0,75,0.00,,---,0.00,VWS V14.00,2013-03-04 13:45:00,
2013-03-04 08:50:00,33.4,25.7,30.11,NNW,337,13.0,21.0,73,0.00,,---,0.00,VWS V14.00,2013-03-04 13:50:00,
2013-03-04 08:55:00,33.5,26.1,30.11,NNW,331,15.0,21.0,74,0.00,,---,0.00,VWS V14.00,2013-03-04 13:55:00,
2013-03-04 09:00:00,33.8,26.4,30.11,North,349,10.0,21.0,74,0.00,,---,0.00,VWS V14.00,2013-03-04 14:00:00,
2013-03-04 09:05:00,34.0,26.3,30.11,North,352,14.0,21.0,73,0.00,,---,0.00,VWS V14.00,2013-03-04 14:05:00,
2013-03-04 09:10:00,34.2,26.8,30.11,NNW,328,15.0,21.0,74,0.00,,---,0.00,VWS V14.00,2013-03-04 14:10:00,
2013-03-04 09:15:00,34.3,26.6,30.11,NNW,339,16.0,21.0,73,0.00,,---,0.00,VWS V14.00,2013-03-04 14:15:00,
2013-03-04 09:20:00,34.4,26.7,30.11,NNW,338,11.0,21.0,73,0.00,,---,0.00,VWS V14.00,2013-03-04 14:20:00,
2013-03-04 09:25:00,34.6,26.9,30.12,NNW,348,9.0,21.0,73,0.00,,---,0.00,VWS V14.00,2013-03-04 14:25:00,
2013-03-04 09:30:00,34.7,26.6,30.12,NNW,344,10.0,21.0,72,0.00,,---,0.00,VWS V14.00,2013-03-04 14:30:00,
2013-03-04 09:35:00,34.9,26.8,30.12,NW,324,13.0,18.0,72,0.00,,---,0.00,VWS V14.00,2013-03-04 14:35:00,
2013-03-04 09:40:00,35.0,26.2,30.12,NNW,348,11.0,18.0,70,0.00,,---,0.00,VWS V14.00,2013-03-04 14:40:00,
2013-03-04 09:45:00,35.1,26.0,30.12,NNW,336,16.0,18.0,69,0.00,,---,0.00,VWS V14.00,2013-03-04 14:45:00,
2013-03-04 09:50:00,35.2,26.4,30.12,NNW,332,15.0,21.0,70,0.00,,---,0.00,VWS V14.00,2013-03-04 14:50:00,
2013-03-04 09:55:00,35.4,26.3,30.12,NNW,343,11.0,21.0,69,0.00,,---,0.00,VWS V14.00,2013-03-04 14:55:00,
2013-03-04 10:00:00,35.5,26.0,30.12,NW,314,11.0,21.0,68,0.00,,---,0.00,VWS V14.00,2013-03-04 15:00:00,
2013-03-04 10:05:00,35.6,26.5,30.13,NW,314,15.0,19.0,69,0.00,,---,0.00,VWS V14.00,2013-03-04 15:05:00,
2013-03-04 10:10:00,35.7,26.9,30.12,NNW,342,11.0,19.0,70,0.00,,---,0.00,VWS V14.00,2013-03-04 15:10:00,
2013-03-04 10:15:00,35.9,26.7,30.13,NNW,346,14.0,19.0,69,0.00,,---,0.00,VWS V14.00,2013-03-04 15:15:00,
2013-03-04 10:20:00,36.1,27.3,30.12,NW,323,12.0,19.0,70,0.00,,---,0.00,VWS V14.00,2013-03-04 15:20:00,
2013-03-04 10:25:00,36.2,26.7,30.12,NNW,333,9.0,19.0,68,0.00,,---,0.00,VWS V14.00,2013-03-04 15:25:00,
2013-03-04 10:30:00,36.3,26.0,30.12,NNW,329,11.0,21.0,66,0.00,,---,0.00,VWS V14.00,2013-03-04 15:30:00,
2013-03-04 10:35:00,36.4,26.5,30.12,NNW,328,10.0,15.0,67,0.00,,---,0.00,VWS V14.00,2013-03-04 15:35:00,
2013-03-04 10:40:00,36.5,26.6,30.12,NNW,330,11.0,15.0,67,0.00,,---,0.00,VWS V14.00,2013-03-04 15:40:00,
2013-03-04 10:45:00,36.6,26.3,30.11,NW,316,17.0,18.0,66,0.00,,---,0.00,VWS V14.00,2013-03-04 15:45:00,
2013-03-04 10:50:00,36.7,26.4,30.11,NW,307,13.0,20.0,66,0.00,,---,0.00,VWS V14.00,2013-03-04 15:50:00,
2013-03-04 10:55:00,36.7,26.1,30.11,NW,316,6.0,20.0,65,0.00,,---,0.00,VWS V14.00,2013-03-04 15:55:00,
2013-03-04 11:00:00,36.7,26.1,30.11,NW,304,12.0,20.0,65,0.00,,---,0.00,VWS V14.00,2013-03-04 16:00:00,
2013-03-04 11:05:00,36.8,26.5,30.11,NW,317,14.0,15.0,66,0.00,,---,0.00,VWS V14.00,2013-03-04 16:05:00,
2013-03-04 11:10:00,37.1,26.8,30.11,NW,307,10.0,18.0,66,0.00,,---,0.00,VWS V14.00,2013-03-04 16:10:00,
2013-03-04 11:15:00,37.3,27.0,30.10,North,359,6.0,18.0,66,0.00,,---,0.00,VWS V14.00,2013-03-04 16:15:00,
2013-03-04 11:20:00,37.4,26.7,30.11,NW,325,12.0,18.0,65,0.00,,---,0.00,VWS V14.00,2013-03-04 16:20:00,
2013-03-04 11:25:00,37.6,26.9,30.11,NW,322,11.0,18.0,65,0.00,,---,0.00,VWS V14.00,2013-03-04 16:25:00,
2013-03-04 11:30:00,37.7,26.6,30.11,NNW,343,12.0,18.0,64,0.00,,---,0.00,VWS V14.00,2013-03-04 16:30:00,
2013-03-04 11:35:00,37.8,26.4,30.11,WNW,294,14.0,15.0,63,0.00,,---,0.00,VWS V14.00,2013-03-04 16:35:00,
2013-03-04 11:40:00,37.9,26.8,30.11,NW,315,8.0,15.0,64,0.00,,---,0.00,VWS V14.00,2013-03-04 16:40:00,
2013-03-04 11:45:00,38.1,27.0,30.11,NNW,328,16.0,19.0,64,0.00,,---,0.00,VWS V14.00,2013-03-04 16:45:00,
2013-03-04 11:50:00,38.3,26.8,30.11,NW,322,14.0,19.0,63,0.00,,---,0.00,VWS V14.00,2013-03-04 16:50:00,
2013-03-04 11:55:00,38.5,27.4,30.10,NNW,328,15.0,19.0,64,0.00,,---,0.00,VWS V14.00,2013-03-04 16:55:00,
2013-03-04 12:00:00,38.7,27.2,30.10,NW,326,14.0,19.0,63,0.00,,---,0.00,VWS V14.00,2013-03-04 17:00:00,
2013-03-04 12:05:00,38.7,26.0,30.09,NW,315,15.0,15.0,60,0.00,,---,0.00,VWS V14.00,2013-03-04 17:05:00,
2013-03-04 12:10:00,38.8,27.3,30.10,NW,308,13.0,19.0,63,0.00,,---,0.00,VWS V14.00,2013-03-04 17:10:00,
2013-03-04 12:15:00,38.8,26.1,30.09,NW,312,13.0,19.0,60,0.00,,---,0.00,VWS V14.00,2013-03-04 17:15:00,
2013-03-04 12:20:00,39.0,27.5,30.09,NW,323,14.0,20.0,63,0.00,,---,0.00,VWS V14.00,2013-03-04 17:20:00,
2013-03-04 12:25:00,39.1,26.8,30.09,NW,321,12.0,20.0,61,0.00,,---,0.00,VWS V14.00,2013-03-04 17:25:00,
2013-03-04 12:30:00,39.4,27.1,30.09,NNW,329,11.0,21.0,61,0.00,,---,0.00,VWS V14.00,2013-03-04 17:30:00,
2013-03-04 12:35:00,39.6,26.5,30.09,NW,305,10.0,18.0,59,0.00,,---,0.00,VWS V14.00,2013-03-04 17:35:00,
2013-03-04 12:40:00,39.8,27.5,30.09,NW,313,15.0,19.0,61,0.00,,---,0.00,VWS V14.00,2013-03-04 17:40:00,
2013-03-04 12:45:00,40.0,26.8,30.08,NW,306,10.0,19.0,59,0.00,,---,0.00,VWS V14.00,2013-03-04 17:45:00,
2013-03-04 12:50:00,40.4,27.2,30.08,WNW,286,13.0,19.0,59,0.00,,---,0.00,VWS V14.00,2013-03-04 17:50:00,
2013-03-04 12:55:00,40.9,27.7,30.08,NW,323,16.0,24.0,59,0.00,,---,0.00,VWS V14.00,2013-03-04 17:55:00,
2013-03-04 13:00:00,41.2,27.6,30.08,WNW,286,10.0,24.0,58,0.00,,---,0.00,VWS V14.00,2013-03-04 18:00:00,
2013-03-04 13:05:00,41.6,27.9,30.07,WNW,302,14.0,19.0,58,0.00,,---,0.00,VWS V14.00,2013-03-04 18:05:00,
2013-03-04 13:10:00,41.9,27.8,30.08,NW,306,13.0,19.0,57,0.00,,---,0.00,VWS V14.00,2013-03-04 18:10:00,
2013-03-04 13:15:00,42.2,28.1,30.07,WNW,282,8.0,19.0,57,0.00,,---,0.00,VWS V14.00,2013-03-04 18:15:00,
2013-03-04 13:20:00,42.4,28.7,30.08,NW,307,15.0,19.0,58,0.00,,---,0.00,VWS V14.00,2013-03-04 18:20:00,
2013-03-04 13:25:00,42.8,28.2,30.07,NW,312,11.0,21.0,56,0.00,,---,0.00,VWS V14.00,2013-03-04 18:25:00,
2013-03-04 13:29:00,43.0,28.4,30.07,NW,312,17.0,22.0,56,0.00,,---,0.00,VWS V14.00,2013-03-04 18:29:00,
2013-03-04 13:34:00,43.3,27.8,30.07,WNW,302,14.0,20.0,54,0.00,,---,0.00,VWS V14.00,2013-03-04 18:34:00,
2013-03-04 13:39:00,43.4,27.9,30.07,WNW,302,9.0,20.0,54,0.00,,---,0.00,VWS V14.00,2013-03-04 18:39:00,
2013-03-04 13:44:00,43.7,29.5,30.07,NNW,337,16.0,21.0,57,0.00,,---,0.00,VWS V14.00,2013-03-04 18:44:00,
2013-03-04 13:49:00,43.7,28.2,30.06,NW,317,13.0,21.0,54,0.00,,---,0.00,VWS V14.00,2013-03-04 18:49:00,
2013-03-04 13:54:00,43.8,28.7,30.06,NW,320,12.0,21.0,55,0.00,,---,0.00,VWS V14.00,2013-03-04 18:54:00,
2013-03-04 13:59:00,44.2,27.7,30.06,NW,307,11.0,21.0,52,0.00,,---,0.00,VWS V14.00,2013-03-04 18:59:00,
2013-03-04 14:04:00,44.5,28.5,30.06,NW,317,12.0,19.0,53,0.00,,---,0.00,VWS V14.00,2013-03-04 19:04:00,
2013-03-04 14:09:00,44.7,28.6,30.06,WNW,292,9.0,19.0,53,0.00,,---,0.00,VWS V14.00,2013-03-04 19:09:00,
2013-03-04 14:14:00,44.8,29.2,30.06,NW,318,17.0,20.0,54,0.00,,---,0.00,VWS V14.00,2013-03-04 19:14:00,
2013-03-04 14:19:00,45.1,29.5,30.06,NW,324,10.0,20.0,54,0.00,,---,0.00,VWS V14.00,2013-03-04 19:19:00,
2013-03-04 14:24:00,45.3,28.7,30.06,WNW,294,13.0,20.0,52,0.00,,---,0.00,VWS V14.00,2013-03-04 19:24:00,
2013-03-04 14:29:00,45.6,29.0,30.06,NW,304,14.0,20.0,52,0.00,,---,0.00,VWS V14.00,2013-03-04 19:29:00,
2013-03-04 14:34:00,45.7,28.1,30.06,WNW,287,11.0,19.0,50,0.00,,---,0.00,VWS V14.00,2013-03-04 19:34:00,
2013-03-04 14:39:00,45.8,28.2,30.06,WNW,301,11.0,19.0,50,0.00,,---,0.00,VWS V14.00,2013-03-04 19:39:00,
2013-03-04 14:44:00,46.0,28.9,30.06,WNW,296,14.0,19.0,51,0.00,,---,0.00,VWS V14.00,2013-03-04 19:44:00,
2013-03-04 14:49:00,46.1,28.5,30.06,WNW,293,12.0,19.0,50,0.00,,---,0.00,VWS V14.00,2013-03-04 19:49:00,
2013-03-04 14:54:00,46.3,28.2,30.06,NW,304,10.0,19.0,49,0.00,,---,0.00,VWS V14.00,2013-03-04 19:54:00,
2013-03-04 14:59:00,46.5,28.9,30.06,NW,308,17.0,19.0,50,0.00,,---,0.00,VWS V14.00,2013-03-04 19:59:00,
2013-03-04 15:04:00,46.6,28.5,30.06,NW,312,16.0,17.0,49,0.00,,---,0.00,VWS V14.00,2013-03-04 20:04:00,
2013-03-04 15:09:00,46.7,28.6,30.06,NW,323,18.0,20.0,49,0.00,,---,0.00,VWS V14.00,2013-03-04 20:09:00,
2013-03-04 15:14:00,46.7,29.1,30.06,NW,324,13.0,20.0,50,0.00,,---,0.00,VWS V14.00,2013-03-04 20:14:00,
2013-03-04 15:19:00,46.8,28.7,30.06,WNW,302,12.0,20.0,49,0.00,,---,0.00,VWS V14.00,2013-03-04 20:19:00,
2013-03-04 15:24:00,47.0,28.9,30.06,NW,305,12.0,20.0,49,0.00,,---,0.00,VWS V14.00,2013-03-04 20:24:00,
2013-03-04 15:29:00,47.1,28.4,30.06,WNW,300,10.0,20.0,48,0.00,,---,0.00,VWS V14.00,2013-03-04 20:29:00,
2013-03-04 15:34:00,47.1,28.9,30.05,NW,314,8.0,15.0,49,0.00,,---,0.00,VWS V14.00,2013-03-04 20:34:00,
2013-03-04 15:39:00,47.2,29.5,30.05,WNW,293,9.0,15.0,50,0.00,,---,0.00,VWS V14.00,2013-03-04 20:39:00,
2013-03-04 15:44:00,47.3,29.6,30.06,NNW,328,12.0,17.0,50,0.00,,---,0.00,VWS V14.00,2013-03-04 20:44:00,
2013-03-04 15:49:00,47.4,29.2,30.06,NW,324,10.0,17.0,49,0.00,,---,0.00,VWS V14.00,2013-03-04 20:49:00,
2013-03-04 15:54:00,47.4,29.7,30.05,NNW,335,13.0,17.0,50,0.00,,---,0.00,VWS V14.00,2013-03-04 20:54:00,
2013-03-04 15:59:00,47.5,29.8,30.06,NW,317,11.0,17.0,50,0.00,,---,0.00,VWS V14.00,2013-03-04 20:59:00,
2013-03-04 16:04:00,47.4,29.7,30.05,NW,326,9.0,17.0,50,0.00,,---,0.00,VWS V14.00,2013-03-04 21:04:00,
2013-03-04 16:09:00,47.4,29.7,30.05,NW,318,9.0,17.0,50,0.00,,---,0.00,VWS V14.00,2013-03-04 21:09:00,
2013-03-04 16:14:00,47.4,28.7,30.05,NW,325,12.0,17.0,48,0.00,,---,0.00,VWS V14.00,2013-03-04 21:14:00,
2013-03-04 16:19:00,47.4,29.7,30.05,NW,310,13.0,17.0,50,0.00,,---,0.00,VWS V14.00,2013-03-04 21:19:00,
2013-03-04 16:24:00,47.4,29.2,30.05,NW,319,9.0,17.0,49,0.00,,---,0.00,VWS V14.00,2013-03-04 21:24:00,
2013-03-04 16:29:00,47.3,29.1,30.05,NW,321,14.0,17.0,49,0.00,,---,0.00,VWS V14.00,2013-03-04 21:29:00,
2013-03-04 16:34:00,47.3,29.6,30.05,NW,313,8.0,15.0,50,0.00,,---,0.00,VWS V14.00,2013-03-04 21:34:00,
2013-03-04 16:39:00,47.2,29.5,30.05,NW,319,14.0,17.0,50,0.00,,---,0.00,VWS V14.00,2013-03-04 21:39:00,
2013-03-04 16:44:00,47.1,28.4,30.06,NW,310,10.0,17.0,48,0.00,,---,0.00,VWS V14.00,2013-03-04 21:44:00,
2013-03-04 16:49:00,47.0,29.3,30.06,NW,306,10.0,17.0,50,0.00,,---,0.00,VWS V14.00,2013-03-04 21:49:00,
2013-03-04 16:54:00,46.9,28.8,30.06,NW,321,8.0,17.0,49,0.00,,---,0.00,VWS V14.00,2013-03-04 21:54:00,
2013-03-04 16:59:00,46.8,28.2,30.06,NNW,330,10.0,17.0,48,0.00,,---,0.00,VWS V14.00,2013-03-04 21:59:00,
2013-03-04 17:04:00,46.7,29.5,30.06,NW,316,14.0,15.0,51,0.00,,---,0.00,VWS V14.00,2013-03-04 22:04:00,
2013-03-04 17:09:00,46.6,29.0,30.06,NW,314,10.0,15.0,50,0.00,,---,0.00,VWS V14.00,2013-03-04 22:09:00,
2013-03-04 17:14:00,46.5,28.9,30.06,NW,308,8.0,15.0,50,0.00,,---,0.00,VWS V14.00,2013-03-04 22:14:00,
2013-03-04 17:19:00,46.4,28.3,30.06,NW,312,10.0,15.0,49,0.00,,---,0.00,VWS V14.00,2013-03-04 22:19:00,
2013-03-04 17:24:00,46.3,29.6,30.07,WNW,300,8.0,15.0,52,0.00,,---,0.00,VWS V14.00,2013-03-04 22:24:00,
2013-03-04 17:29:00,46.2,29.6,30.07,NW,306,11.0,15.0,52,0.00,,---,0.00,VWS V14.00,2013-03-04 22:29:00,
2013-03-04 17:34:00,46.0,27.9,30.07,NW,314,7.0,11.0,49,0.00,,---,0.00,VWS V14.00,2013-03-04 22:34:00,
2013-03-04 17:39:00,45.9,29.8,30.07,WNW,300,12.0,13.0,53,0.00,,---,0.00,VWS V14.00,2013-03-04 22:39:00,
2013-03-04 17:44:00,45.9,30.2,30.08,WNW,302,13.0,14.0,54,0.00,,---,0.00,VWS V14.00,2013-03-04 22:44:00,
2013-03-04 17:49:00,45.8,28.7,30.08,WNW,297,10.0,14.0,51,0.00,,---,0.00,VWS V14.00,2013-03-04 22:49:00,
2013-03-04 17:54:00,45.7,30.5,30.08,WNW,299,9.0,14.0,55,0.00,,---,0.00,VWS V14.00,2013-03-04 22:54:00,
2013-03-04 17:59:00,45.5,28.9,30.08,WNW,301,11.0,14.0,52,0.00,,---,0.00,VWS V14.00,2013-03-04 22:59:00,
2013-03-04 18:04:00,45.3,29.2,30.08,WNW,300,10.0,13.0,53,0.00,,---,0.00,VWS V14.00,2013-03-04 23:04:00,
2013-03-04 18:09:00,45.1,29.9,30.09,WNW,296,9.0,13.0,55,0.00,,---,0.00,VWS V14.00,2013-03-04 23:09:00,
2013-03-04 18:14:00,44.9,29.7,30.09,NW,312,11.0,13.0,55,0.00,,---,0.00,VWS V14.00,2013-03-04 23:14:00,
2013-03-04 18:19:00,44.7,29.1,30.09,NW,313,9.0,13.0,54,0.00,,---,0.00,VWS V14.00,2013-03-04 23:19:00,
2013-03-04 18:24:00,44.5,29.4,30.09,NW,304,7.0,13.0,55,0.00,,---,0.00,VWS V14.00,2013-03-04 23:24:00,
2013-03-04 18:29:00,44.3,29.6,30.10,WNW,302,6.0,13.0,56,0.00,,---,0.00,VWS V14.00,2013-03-04 23:29:00,
2013-03-04 18:34:00,44.2,30.4,30.09,NW,305,8.0,8.0,58,0.00,,---,0.00,VWS V14.00,2013-03-04 23:34:00,
2013-03-04 18:39:00,44.1,30.7,30.10,WNW,294,8.0,10.0,59,0.00,,---,0.00,VWS V14.00,2013-03-04 23:39:00,
2013-03-04 18:44:00,44.1,30.7,30.10,WNW,296,10.0,12.0,59,0.00,,---,0.00,VWS V14.00,2013-03-04 23:44:00,
2013-03-04 18:49:00,44.0,31.0,30.11,WNW,296,8.0,12.0,60,0.00,,---,0.00,VWS V14.00,2013-03-04 23:49:00,
2013-03-04 18:54:00,43.9,29.7,30.11,WNW,301,10.0,14.0,57,0.00,,---,0.00,VWS V14.00,2013-03-04 23:54:00,
2013-03-04 18:59:00,43.8,30.4,30.11,WNW,301,7.0,14.0,59,0.00,,---,0.00,VWS V14.00,2013-03-04 23:59:00,
2013-03-04 19:04:00,43.6,30.2,30.12,NW,305,9.0,11.0,59,0.00,,---,0.00,VWS V14.00,2013-03-05 00:04:00,
2013-03-04 19:09:00,43.5,29.7,30.12,NW,307,6.0,11.0,58,0.00,,---,0.00,VWS V14.00,2013-03-05 00:09:00,
2013-03-04 19:14:00,43.4,30.0,30.11,NW,308,6.0,11.0,59,0.00,,---,0.00,VWS V14.00,2013-03-05 00:14:00,
2013-03-04 19:19:00,43.3,30.0,30.11,NW,312,10.0,11.0,59,0.00,,---,0.00,VWS V14.00,2013-03-05 00:19:00,
2013-03-04 19:24:00,43.2,29.9,30.11,NW,317,7.0,11.0,59,0.00,,---,0.00,VWS V14.00,2013-03-05 00:24:00,
2013-03-04 19:29:00,43.1,29.8,30.11,NW,316,7.0,11.0,59,0.00,,---,0.00,VWS V14.00,2013-03-05 00:29:00,
2013-03-04 19:34:00,43.0,29.7,30.11,NW,311,7.0,9.0,59,0.00,,---,0.00,VWS V14.00,2013-03-05 00:34:00,
2013-03-04 19:39:00,42.9,29.6,30.12,NW,307,7.0,9.0,59,0.00,,---,0.00,VWS V14.00,2013-03-05 00:39:00,
2013-03-04 19:44:00,42.7,29.0,30.12,NW,313,6.0,9.0,58,0.00,,---,0.00,VWS V14.00,2013-03-05 00:44:00,
2013-03-04 19:49:00,42.7,29.8,30.12,WNW,303,5.0,9.0,60,0.00,,---,0.00,VWS V14.00,2013-03-05 00:49:00,
2013-03-04 19:54:00,42.6,29.7,30.12,NW,305,7.0,9.0,60,0.00,,---,0.00,VWS V14.00,2013-03-05 00:54:00,
2013-03-04 19:59:00,42.5,29.6,30.12,NW,311,5.0,9.0,60,0.00,,---,0.00,VWS V14.00,2013-03-05 00:59:00,
2013-03-04 20:04:00,42.4,30.3,30.12,NW,315,6.0,9.0,62,0.00,,---,0.00,VWS V14.00,2013-03-05 01:04:00,
2013-03-04 20:09:00,42.4,29.9,30.12,NW,313,5.0,9.0,61,0.00,,---,0.00,VWS V14.00,2013-03-05 01:09:00,
2013-03-04 20:14:00,42.3,29.0,30.12,NW,309,2.0,9.0,59,0.00,,---,0.00,VWS V14.00,2013-03-05 01:14:00,
2013-03-04 20:19:00,42.2,29.3,30.13,NW,309,2.0,9.0,60,0.00,,---,0.00,VWS V14.00,2013-03-05 01:19:00,
2013-03-04 20:24:00,42.1,30.4,30.12,NW,309,2.0,9.0,63,0.00,,---,0.00,VWS V14.00,2013-03-05 01:24:00,
2013-03-04 20:29:00,42.1,31.2,30.12,NW,309,1.0,9.0,65,0.00,,---,0.00,VWS V14.00,2013-03-05 01:29:00,
2013-03-04 20:34:00,42.0,30.7,30.13,NW,309,6.0,6.0,64,0.00,,---,0.00,VWS V14.00,2013-03-05 01:34:00,
2013-03-04 20:39:00,41.9,30.2,30.13,NW,309,4.0,6.0,63,0.00,,---,0.00,VWS V14.00,2013-03-05 01:39:00,
2013-03-04 20:44:00,41.8,31.3,30.13,NW,309,0.0,6.0,66,0.00,,---,0.00,VWS V14.00,2013-03-05 01:44:00,
2013-03-04 20:49:00,41.8,31.3,30.13,NW,309,0.0,6.0,66,0.00,,---,0.00,VWS V14.00,2013-03-05 01:49:00,
2013-03-04 20:54:00,41.7,31.6,30.14,NW,309,2.0,6.0,67,0.00,,---,0.00,VWS V14.00,2013-03-05 01:54:00,
2013-03-04 20:59:00,41.7,31.9,30.13,WNW,299,2.0,6.0,68,0.00,,---,0.00,VWS V14.00,2013-03-05 01:59:00,
2013-03-04 21:04:00,41.7,31.9,30.14,WNW,299,2.0,2.0,68,0.00,,---,0.00,VWS V14.00,2013-03-05 02:04:00,
2013-03-04 21:09:00,41.6,32.2,30.14,WNW,299,0.0,2.0,69,0.00,,---,0.00,VWS V14.00,2013-03-05 02:09:00,
2013-03-04 21:14:00,41.5,31.7,30.14,WNW,299,0.0,2.0,68,0.00,,---,0.00,VWS V14.00,2013-03-05 02:14:00,
2013-03-04 21:19:00,41.3,31.9,30.14,WNW,299,0.0,2.0,69,0.00,,---,0.00,VWS V14.00,2013-03-05 02:19:00,
2013-03-04 21:24:00,41.1,31.7,30.14,WNW,299,0.0,2.0,69,0.00,,---,0.00,VWS V14.00,2013-03-05 02:24:00,
2013-03-04 21:29:00,40.9,31.5,30.14,WNW,299,0.0,2.0,69,0.00,,---,0.00,VWS V14.00,2013-03-05 02:29:00,
2013-03-04 21:34:00,40.8,31.8,30.14,WNW,299,0.0,0.0,70,0.00,,---,0.00,VWS V14.00,2013-03-05 02:34:00,
2013-03-04 21:39:00,40.7,32.4,30.15,WNW,299,0.0,2.0,72,0.00,,---,0.00,VWS V14.00,2013-03-05 02:39:00,
2013-03-04 21:44:00,40.6,32.3,30.14,WNW,299,0.0,2.0,72,0.00,,---,0.00,VWS V14.00,2013-03-05 02:44:00,
2013-03-04 21:49:00,40.5,32.5,30.15,WNW,299,0.0,2.0,73,0.00,,---,0.00,VWS V14.00,2013-03-05 02:49:00,
2013-03-04 21:54:00,40.5,33.2,30.15,WNW,299,0.0,2.0,75,0.00,,---,0.00,VWS V14.00,2013-03-05 02:54:00,
2013-03-04 21:59:00,40.6,33.3,30.15,WNW,299,0.0,2.0,75,0.00,,---,0.00,VWS V14.00,2013-03-05 02:59:00,
2013-03-04 22:04:00,40.6,33.0,30.15,WNW,298,0.0,0.0,74,0.00,,---,0.00,VWS V14.00,2013-03-05 03:04:00,
2013-03-04 22:09:00,40.5,32.9,30.15,WNW,299,0.0,0.0,74,0.00,,---,0.00,VWS V14.00,2013-03-05 03:09:00,
2013-03-04 22:14:00,40.5,32.9,30.15,WNW,299,0.0,0.0,74,0.00,,---,0.00,VWS V14.00,2013-03-05 03:14:00,
2013-03-04 22:19:00,40.4,33.1,30.15,WNW,299,2.0,2.0,75,0.00,,---,0.00,VWS V14.00,2013-03-05 03:19:00,
2013-03-04 22:24:00,40.2,32.6,30.15,WNW,299,1.0,3.0,74,0.00,,---,0.00,VWS V14.00,2013-03-05 03:24:00,
2013-03-04 22:29:00,40.1,32.2,30.15,WNW,298,2.0,3.0,73,0.00,,---,0.00,VWS V14.00,2013-03-05 03:29:00,
2013-03-04 22:34:00,40.0,31.7,30.15,WNW,298,2.0,3.0,72,0.00,,---,0.00,VWS V14.00,2013-03-05 03:34:00,
2013-03-04 22:39:00,39.9,31.6,30.15,WNW,298,2.0,3.0,72,0.00,,---,0.00,VWS V14.00,2013-03-05 03:39:00,
2013-03-04 22:44:00,39.7,31.4,30.15,WNW,299,1.0,3.0,72,0.00,,---,0.00,VWS V14.00,2013-03-05 03:44:00,
2013-03-04 22:49:00,39.5,31.2,30.15,WNW,298,1.0,3.0,72,0.00,,---,0.00,VWS V14.00,2013-03-05 03:49:00,
2013-03-04 22:54:00,39.4,30.8,30.15,WNW,299,2.0,3.0,71,0.00,,---,0.00,VWS V14.00,2013-03-05 03:54:00,
2013-03-04 22:59:00,39.4,30.4,30.15,WNW,298,0.0,3.0,70,0.00,,---,0.00,VWS V14.00,2013-03-05 03:59:00,
2013-03-04 23:04:00,39.3,30.4,30.14,WNW,299,0.0,0.0,70,0.00,,---,0.00,VWS V14.00,2013-03-05 04:04:00,
2013-03-04 23:09:00,39.3,30.4,30.14,WNW,299,0.0,0.0,70,0.00,,---,0.00,VWS V14.00,2013-03-05 04:09:00,
2013-03-04 23:14:00,39.2,30.6,30.15,WNW,299,0.0,0.0,71,0.00,,---,0.00,VWS V14.00,2013-03-05 04:14:00,
2013-03-04 23:19:00,39.3,31.4,30.15,WNW,298,0.0,0.0,73,0.00,,---,0.00,VWS V14.00,2013-03-05 04:19:00,
2013-03-04 23:24:00,39.4,32.2,30.15,WNW,298,0.0,0.0,75,0.00,,---,0.00,VWS V14.00,2013-03-05 04:24:00,
2013-03-04 23:29:00,39.5,31.9,30.15,WNW,299,0.0,0.0,74,0.00,,---,0.00,VWS V14.00,2013-03-05 04:29:00,
2013-03-04 23:34:00,39.6,32.0,30.15,WNW,299,0.0,0.0,74,0.00,,---,0.00,VWS V14.00,2013-03-05 04:34:00,
2013-03-04 23:39:00,39.7,32.8,30.14,WNW,298,0.0,0.0,76,0.00,,---,0.00,VWS V14.00,2013-03-05 04:39:00,
2013-03-04 23:44:00,40.1,33.8,30.14,WNW,298,0.0,0.0,78,0.00,,---,0.00,VWS V14.00,2013-03-05 04:44:00,
2013-03-04 23:49:00,40.5,33.9,30.15,WNW,296,0.0,0.0,77,0.00,,---,0.00,VWS V14.00,2013-03-05 04:49:00,
2013-03-04 23:54:00,40.8,34.5,30.15,WNW,295,0.0,0.0,78,0.00,,---,0.00,VWS V14.00,2013-03-05 04:54:00,
2013-03-04 23:59:00,41.0,34.7,30.15,WNW,296,0.0,0.0,78,0.00,,---,0.00,VWS V14.00,2013-03-05 04:59:00,